Time;durP1;ratioP1;P1;durP2;ratioP2;P2;SDS_P1;SDS_P2;PMS_P1;PMS_P2;Temp;Humidity;BMP_temperature;BMP_pressure;BME280_temperature;BME280_humidity;BME280_pressure;Samples;Min_cycle;Max_cycle;Signal;HPM_P1;HPM_P2
2023/01/14 00:01:18;;;;;;;31.37;29.67;;;6.20;99.90;;;;;;5050754;28;20971;-74
2023/01/14 00:03:46;;;;;;;30.23;28.53;;;6.20;99.90;;;;;;5050445;28;21041;-74
2023/01/14 00:06:14;;;;;;;30.67;28.97;;;6.20;99.90;;;;;;5050514;28;20448;-74
2023/01/14 00:08:41;;;;;;;31.30;29.30;;;6.10;99.90;;;;;;5050138;28;20559;-74
2023/01/14 00:11:11;;;;;;;31.60;29.80;;;6.10;99.90;;;;;;5050769;28;20455;-74
2023/01/14 00:13:40;;;;;;;29.73;27.73;;;6.10;99.90;;;;;;5050511;28;20455;-74
2023/01/14 00:16:11;;;;;;;29.80;28.20;;;6.10;99.90;;;;;;5050313;28;20571;-75
2023/01/14 00:18:38;;;;;;;29.20;27.60;;;6.10;99.90;;;;;;5050639;28;20448;-74
2023/01/14 00:21:07;;;;;;;28.60;27.10;;;6.00;99.90;;;;;;5050563;28;20827;-74
2023/01/14 00:23:35;;;;;;;28.50;26.93;;;5.80;99.90;;;;;;5050280;28;20944;-73
2023/01/14 00:26:07;;;;;;;29.40;27.70;;;5.90;99.90;;;;;;5050049;28;20467;-74
2023/01/14 00:28:35;;;;;;;31.40;29.30;;;5.80;99.90;;;;;;5050164;28;20510;-75
2023/01/14 00:31:08;;;;;;;29.03;27.47;;;5.80;99.90;;;;;;5050103;28;20810;-74
2023/01/14 00:33:35;;;;;;;29.03;27.27;;;5.70;99.90;;;;;;5050361;28;20502;-74
2023/01/14 00:36:03;;;;;;;29.27;27.10;;;5.70;99.90;;;;;;5049831;28;20444;-74
2023/01/14 00:38:29;;;;;;;28.43;26.63;;;5.60;99.90;;;;;;5049804;28;20448;-75
2023/01/14 00:41:08;;;;;;;28.63;26.90;;;5.70;99.90;;;;;;5049925;28;20501;-74
2023/01/14 00:43:38;;;;;;;26.87;25.07;;;5.70;99.90;;;;;;5050066;28;20474;-73
2023/01/14 00:46:07;;;;;;;27.13;25.33;;;5.70;99.90;;;;;;5050222;28;20460;-74
2023/01/14 00:48:34;;;;;;;26.77;25.37;;;5.70;99.90;;;;;;5049754;28;20492;-74
2023/01/14 00:51:01;;;;;;;26.23;24.70;;;5.60;99.90;;;;;;5049530;28;20456;-74
2023/01/14 00:53:28;;;;;;;25.90;24.07;;;5.60;99.90;;;;;;5049406;28;20931;-74
2023/01/14 00:55:56;;;;;;;26.70;25.10;;;5.60;99.90;;;;;;5049604;28;20514;-74
2023/01/14 00:58:23;;;;;;;27.40;25.70;;;5.60;99.90;;;;;;5049832;28;20448;-74
2023/01/14 01:00:52;;;;;;;27.77;26.03;;;5.60;99.90;;;;;;5049783;28;21081;-73
2023/01/14 01:03:19;;;;;;;24.87;23.20;;;5.60;99.90;;;;;;5049537;28;20456;-73
2023/01/14 01:05:46;;;;;;;24.57;23.07;;;5.60;99.90;;;;;;5049416;28;20471;-73
2023/01/14 01:08:15;;;;;;;24.33;22.70;;;5.70;99.90;;;;;;5049086;28;20840;-73
2023/01/14 01:10:43;;;;;;;22.77;21.53;;;5.80;99.90;;;;;;5049304;28;20518;-74
2023/01/14 01:13:10;;;;;;;22.93;21.43;;;5.90;99.90;;;;;;5049232;28;20535;-73
2023/01/14 01:15:38;;;;;;;19.93;19.03;;;5.90;99.90;;;;;;5048712;28;20455;-73
2023/01/14 01:18:07;;;;;;;19.73;18.50;;;5.90;99.90;;;;;;5049269;28;20493;-73
2023/01/14 01:20:34;;;;;;;18.87;17.90;;;5.90;99.90;;;;;;5049215;28;20509;-73
2023/01/14 01:23:02;;;;;;;18.53;17.33;;;5.90;99.90;;;;;;5048931;28;20521;-74
2023/01/14 01:25:29;;;;;;;19.43;18.10;;;5.70;99.90;;;;;;5049026;28;20475;-73
2023/01/14 01:27:56;;;;;;;18.03;17.13;;;5.60;99.90;;;;;;5048838;28;20484;-73
2023/01/14 01:30:24;;;;;;;18.17;17.13;;;5.50;99.90;;;;;;5049025;28;20691;-73
2023/01/14 01:32:52;;;;;;;19.27;17.87;;;5.50;99.90;;;;;;5049193;28;20463;-74
2023/01/14 01:35:21;;;;;;;17.87;16.97;;;5.40;99.90;;;;;;5049042;28;20448;-72
2023/01/14 01:37:47;;;;;;;19.90;18.80;;;5.50;99.90;;;;;;5048783;28;20550;-71
2023/01/14 01:40:15;;;;;;;17.90;16.40;;;5.50;99.90;;;;;;5048860;28;20679;-72
2023/01/14 01:42:55;;;;;;;17.20;16.30;;;5.50;99.90;;;;;;5048683;28;20455;-72
2023/01/14 01:45:42;;;;;;;18.83;17.40;;;5.40;99.90;;;;;;5048331;28;20515;-71
2023/01/14 01:48:13;;;;;;;17.17;15.97;;;5.40;99.90;;;;;;5048669;28;20979;-73
2023/01/14 01:50:42;;;;;;;17.83;16.50;;;5.70;99.90;;;;;;5048643;28;20482;-72
2023/01/14 01:53:09;;;;;;;16.33;15.20;;;5.40;99.90;;;;;;5048664;28;20456;-72
2023/01/14 01:55:40;;;;;;;16.70;15.63;;;5.40;99.90;;;;;;5048803;28;20460;-71
2023/01/14 01:58:09;;;;;;;16.53;15.60;;;5.40;99.90;;;;;;5048967;28;20841;-72
2023/01/14 02:00:36;;;;;;;18.67;17.40;;;5.30;99.90;;;;;;5048562;28;20452;-72
2023/01/14 02:03:07;;;;;;;17.13;16.03;;;5.30;99.90;;;;;;5048778;28;20449;-72
2023/01/14 02:05:34;;;;;;;17.37;16.27;;;5.20;99.90;;;;;;5049048;28;20440;-73
2023/01/14 02:08:03;;;;;;;16.73;15.83;;;5.30;99.90;;;;;;5048142;28;20492;-72
2023/01/14 02:10:48;;;;;;;17.60;16.73;;;5.30;99.90;;;;;;5048813;28;20448;-72
2023/01/14 02:13:26;;;;;;;16.20;14.87;;;5.40;99.90;;;;;;5048627;28;20448;-71
2023/01/14 02:16:01;;;;;;;15.60;14.57;;;5.50;99.90;;;;;;5048799;28;20541;-73
2023/01/14 02:18:43;;;;;;;16.23;15.20;;;5.70;99.90;;;;;;5048700;28;20470;-71
2023/01/14 02:21:18;;;;;;;15.50;14.43;;;5.80;99.90;;;;;;5048676;28;20451;-72
2023/01/14 02:24:14;;;;;;;14.60;13.93;;;5.80;99.90;;;;;;5048370;28;20455;-73
2023/01/14 02:27:17;;;;;;;14.80;13.43;;;5.90;99.90;;;;;;5048129;28;20517;-72
2023/01/14 02:30:05;;;;;;;14.60;13.67;;;5.90;99.90;;;;;;5052314;28;21001;-74
2023/01/14 02:32:38;;;;;;;15.03;13.97;;;5.80;99.90;;;;;;5050375;28;20873;-71
2023/01/14 10:12:54;;;;;;;16.23;15.23;;;8.60;99.90;;;;;;5125634;27;20866;-73
2023/01/14 10:15:32;;;;;;;13.97;13.17;;;10.10;99.90;;;;;;5125716;27;20460;-73
2023/01/14 10:18:05;;;;;;;13.80;12.80;;;10.10;99.90;;;;;;5125962;27;20593;-75
2023/01/14 10:20:37;;;;;;;12.70;12.20;;;10.20;99.90;;;;;;5126105;27;20480;-75
2023/01/14 10:23:11;;;;;;;13.57;12.37;;;10.20;99.90;;;;;;5125513;27;20451;-74
2023/01/14 10:25:39;;;;;;;12.50;11.80;;;10.10;99.90;;;;;;5125540;27;20735;-74
2023/01/14 10:28:12;;;;;;;12.60;11.90;;;10.20;99.90;;;;;;5125429;27;20819;-74
2023/01/14 10:30:40;;;;;;;12.97;12.17;;;10.10;99.90;;;;;;5125226;27;20459;-75
2023/01/14 10:33:07;;;;;;;12.80;12.10;;;10.10;99.90;;;;;;5125258;27;20445;-75
2023/01/14 10:35:36;;;;;;;12.00;11.40;;;10.00;99.90;;;;;;5125473;27;20448;-75
2023/01/14 10:38:04;;;;;;;12.23;11.53;;;10.00;99.90;;;;;;5125444;27;20567;-75
2023/01/14 10:40:32;;;;;;;12.40;11.70;;;9.90;99.90;;;;;;5125721;27;20480;-75
2023/01/14 10:43:01;;;;;;;12.70;11.90;;;9.90;99.90;;;;;;5125360;27;20533;-76
2023/01/14 10:45:29;;;;;;;14.20;13.03;;;9.90;99.90;;;;;;5125341;27;20441;-76
2023/01/14 10:48:02;;;;;;;11.67;11.10;;;10.00;99.90;;;;;;5125303;27;20448;-76
2023/01/14 10:50:30;;;;;;;12.90;12.10;;;10.10;99.90;;;;;;5125218;27;20772;-75
2023/01/14 10:53:15;;;;;;;11.97;11.27;;;10.10;99.90;;;;;;5124987;27;20452;-75
2023/01/14 10:55:49;;;;;;;12.33;11.63;;;10.20;99.90;;;;;;5124801;27;20936;-74
2023/01/14 10:58:18;;;;;;;12.50;11.80;;;10.30;99.90;;;;;;5125261;27;20935;-75
2023/01/14 11:00:50;;;;;;;12.20;11.70;;;10.40;99.90;;;;;;5125059;27;20483;-76
2023/01/14 11:03:24;;;;;;;12.90;12.30;;;10.50;99.90;;;;;;5125053;27;20460;-76
2023/01/14 11:05:55;;;;;;;11.90;11.33;;;10.50;99.90;;;;;;5124591;27;20481;-75
2023/01/14 11:08:26;;;;;;;12.33;11.63;;;10.50;99.90;;;;;;5124676;28;20449;-76
2023/01/14 11:10:55;;;;;;;12.53;12.03;;;10.40;99.90;;;;;;5124881;27;20508;-76
2023/01/14 11:13:28;;;;;;;10.73;10.23;;;10.40;99.90;;;;;;5114345;27;20514;-76
2023/01/14 11:15:57;;;;;;;12.40;11.60;;;10.30;99.90;;;;;;5111175;27;20448;-76
2023/01/14 11:18:27;;;;;;;13.10;12.40;;;10.40;99.90;;;;;;5110947;28;20586;-77
2023/01/14 11:21:02;;;;;;;13.17;12.47;;;10.40;99.90;;;;;;5110607;28;20481;-76
2023/01/14 11:23:31;;;;;;;12.80;12.00;;;10.40;99.90;;;;;;5110885;28;20463;-76
2023/01/14 11:26:02;;;;;;;10.87;10.47;;;10.40;99.90;;;;;;5110833;28;20441;-76
2023/01/14 11:28:29;;;;;;;14.17;13.33;;;10.40;99.90;;;;;;5111256;28;20449;-76
2023/01/14 11:30:58;;;;;;;11.00;10.43;;;10.50;99.90;;;;;;5111193;28;20445;-76
2023/01/14 11:33:27;;;;;;;10.83;10.43;;;10.40;99.90;;;;;;5110913;28;20536;-77
2023/01/14 11:35:57;;;;;;;11.00;10.40;;;10.60;99.90;;;;;;5110946;28;20576;-75
2023/01/14 11:38:25;;;;;;;13.23;12.53;;;10.60;99.90;;;;;;5110959;28;20464;-75
2023/01/14 11:43:53;;;;;;;13.93;12.83;;;10.50;99.90;;;;;;5111125;28;20547;-75
2023/01/14 11:46:21;;;;;;;12.10;11.60;;;10.60;99.90;;;;;;5111123;28;20539;-75
2023/01/14 11:49:16;;;;;;;11.87;11.27;;;10.70;99.90;;;;;;5111035;28;20449;-76
2023/01/14 11:51:57;;;;;;;12.20;11.30;;;10.70;99.90;;;;;;5111209;28;20939;-76
2023/01/14 11:54:25;;;;;;;11.60;11.10;;;10.70;99.90;;;;;;5111001;28;20449;-76
2023/01/14 11:56:52;;;;;;;11.80;11.30;;;10.80;99.90;;;;;;5110853;28;20934;-75
2023/01/14 11:59:27;;;;;;;12.07;11.47;;;10.80;99.90;;;;;;5118923;28;20446;-76
2023/01/14 12:01:58;;;;;;;11.33;10.73;;;10.80;99.90;;;;;;5118886;28;20488;-76
2023/01/14 12:04:31;;;;;;;12.27;11.67;;;10.90;99.90;;;;;;5120418;28;20456;-79
2023/01/14 12:07:02;;;;;;;12.23;11.63;;;10.90;99.90;;;;;;5120429;28;20498;-77
2023/01/14 12:09:36;;;;;;;11.80;11.30;;;11.00;99.90;;;;;;5117919;28;20450;-75
2023/01/14 12:12:09;;;;;;;11.80;11.20;;;11.00;99.90;;;;;;5114901;28;20480;-75
2023/01/14 12:17:31;;;;;;;11.00;10.57;;;11.00;99.90;;;;;;5111048;28;20432;-76
2023/01/14 12:20:02;;;;;;;11.60;11.00;;;11.10;99.90;;;;;;5110757;28;20480;-75
2023/01/14 12:22:34;;;;;;;12.20;11.60;;;11.00;99.90;;;;;;5110456;28;20786;-76
2023/01/14 12:25:11;;;;;;;11.73;11.23;;;11.00;99.90;;;;;;5109581;28;20449;-75
2023/01/14 12:27:44;;;;;;;12.13;11.63;;;11.00;99.90;;;;;;5110259;28;20581;-75
2023/01/14 12:30:24;;;;;;;10.93;10.50;;;11.10;99.90;;;;;;5109930;28;20936;-76
2023/01/14 12:33:01;;;;;;;12.47;11.77;;;11.00;99.90;;;;;;5110077;28;20456;-75
2023/01/14 12:35:32;;;;;;;12.07;11.47;;;11.00;99.90;;;;;;5109982;28;20810;-76
2023/01/14 12:38:01;;;;;;;11.23;10.83;;;11.10;99.90;;;;;;5110075;28;20456;-75
2023/01/14 12:46:10;;;;;;;11.60;11.20;;;11.00;99.90;;;;;;5109884;28;20417;-76
2023/01/14 12:48:38;;;;;;;12.00;11.30;;;11.00;99.90;;;;;;5109793;28;20754;-75
2023/01/14 12:51:10;;;;;;;11.57;11.07;;;10.90;99.90;;;;;;5109824;28;20434;-76
2023/01/14 12:53:47;;;;;;;11.13;10.73;;;10.90;99.90;;;;;;5109499;28;20482;-76
2023/01/14 12:56:21;;;;;;;11.30;10.70;;;10.90;99.90;;;;;;5109516;28;20449;-74
2023/01/14 12:58:56;;;;;;;12.30;11.33;;;10.90;99.90;;;;;;5109606;28;20469;-75
2023/01/14 13:01:26;;;;;;;11.10;10.20;;;10.90;99.90;;;;;;5109780;28;20575;-75
2023/01/14 13:03:58;;;;;;;11.97;11.37;;;10.90;99.90;;;;;;5109154;28;20449;-76
2023/01/14 13:06:27;;;;;;;11.23;10.80;;;10.90;99.90;;;;;;5109103;28;20480;-76
2023/01/14 13:08:57;;;;;;;11.83;11.33;;;10.80;99.90;;;;;;5109260;28;20438;-76
2023/01/14 13:11:27;;;;;;;11.70;11.00;;;10.80;99.90;;;;;;5108919;28;21164;-75
2023/01/14 13:13:56;;;;;;;11.40;10.87;;;10.90;99.90;;;;;;5108887;28;20510;-75
2023/01/14 13:16:36;;;;;;;13.23;12.17;;;10.80;99.90;;;;;;5108838;28;20453;-75
2023/01/14 13:19:06;;;;;;;11.93;11.40;;;10.80;99.90;;;;;;5109264;28;20452;-76
2023/01/14 13:21:55;;;;;;;11.70;11.30;;;10.80;99.90;;;;;;5108927;28;20859;-76
2023/01/14 13:24:37;;;;;;;11.80;11.30;;;10.70;99.90;;;;;;5109089;28;20453;-75
2023/01/14 13:27:33;;;;;;;12.43;11.70;;;10.70;99.90;;;;;;5109197;28;20523;-75
2023/01/14 13:30:37;;;;;;;12.37;11.80;;;10.70;99.90;;;;;;5109289;28;20836;-75
2023/01/14 13:33:17;;;;;;;11.83;11.30;;;10.70;99.90;;;;;;5109219;28;21007;-75
2023/01/14 13:36:20;;;;;;;13.03;12.00;;;10.60;99.90;;;;;;5108897;28;20445;-75
2023/01/14 13:39:02;;;;;;;11.93;11.33;;;10.60;99.90;;;;;;5106635;28;20461;-76
2023/01/14 13:41:41;;;;;;;12.40;11.80;;;10.60;99.90;;;;;;5108858;28;20864;-75
2023/01/14 13:44:22;;;;;;;12.33;11.80;;;10.60;99.90;;;;;;5109224;28;20456;-75
2023/01/14 13:46:52;;;;;;;13.30;12.53;;;10.40;99.90;;;;;;5109411;28;20494;-75
2023/01/14 13:49:26;;;;;;;10.43;9.93;;;10.40;99.90;;;;;;5109475;28;20457;-75
2023/01/14 13:52:00;;;;;;;12.73;12.03;;;10.40;99.90;;;;;;5108853;28;20637;-75
2023/01/14 13:54:31;;;;;;;12.17;11.47;;;10.50;99.90;;;;;;5108778;28;20449;-75
2023/01/14 13:57:18;;;;;;;12.33;11.53;;;10.50;99.90;;;;;;5108962;28;20453;-76
2023/01/14 13:59:52;;;;;;;10.50;9.90;;;10.60;99.90;;;;;;5109211;28;20453;-75
2023/01/14 14:02:42;;;;;;;11.03;10.40;;;10.60;99.90;;;;;;5108888;28;20489;-75
2023/01/14 14:05:24;;;;;;;12.80;11.83;;;10.60;99.90;;;;;;5108572;28;20548;-75
2023/01/14 14:08:18;;;;;;;10.90;10.30;;;10.60;99.90;;;;;;5108724;28;20449;-75
2023/01/14 14:10:55;;;;;;;10.07;9.57;;;10.60;99.90;;;;;;5106286;28;20497;-75
2023/01/14 14:16:15;;;;;;;10.80;10.10;;;10.60;99.90;;;;;;5108848;28;20421;-75
2023/01/14 14:18:53;;;;;;;10.17;9.77;;;10.60;99.90;;;;;;5108742;28;20452;-76
2023/01/14 14:21:25;;;;;;;10.47;9.83;;;10.60;99.90;;;;;;5108681;28;20532;-75
2023/01/14 14:23:56;;;;;;;11.03;10.43;;;10.60;99.90;;;;;;5108512;28;20963;-75
2023/01/14 14:26:27;;;;;;;11.50;10.90;;;10.70;99.90;;;;;;5108538;28;20452;-76
2023/01/14 14:28:57;;;;;;;11.17;10.57;;;10.70;99.90;;;;;;5108610;28;20441;-76
2023/01/14 14:31:30;;;;;;;11.90;11.20;;;10.70;99.90;;;;;;5108495;28;20766;-75
2023/01/14 14:34:05;;;;;;;11.13;10.53;;;10.70;99.90;;;;;;5108525;28;20493;-75
2023/01/14 14:36:33;;;;;;;11.93;10.90;;;10.80;99.90;;;;;;5108977;28;20753;-75
2023/01/14 14:39:02;;;;;;;11.30;10.80;;;10.80;99.90;;;;;;5108725;28;20550;-76
2023/01/14 14:41:34;;;;;;;11.83;11.00;;;10.80;99.90;;;;;;5108564;28;20469;-75
2023/01/14 14:44:05;;;;;;;11.93;11.33;;;10.80;99.90;;;;;;5108623;28;20944;-76
2023/01/14 14:46:32;;;;;;;12.30;11.50;;;10.70;99.90;;;;;;5108686;28;20666;-76
2023/01/14 14:49:11;;;;;;;11.03;10.30;;;10.60;99.90;;;;;;5112215;28;20444;-76
2023/01/14 14:51:44;;;;;;;11.90;10.83;;;10.70;99.90;;;;;;5112395;28;20448;-76
2023/01/14 14:54:26;;;;;;;11.07;10.47;;;10.80;99.90;;;;;;5112330;28;20456;-76
2023/01/14 14:56:54;;;;;;;12.40;11.57;;;10.90;99.90;;;;;;5112249;28;20468;-76
2023/01/14 14:59:22;;;;;;;11.77;11.27;;;10.80;99.90;;;;;;5112234;28;20532;-76
2023/01/14 15:01:49;;;;;;;11.33;10.90;;;10.70;99.90;;;;;;5112058;28;20477;-76
2023/01/14 15:04:20;;;;;;;11.13;10.07;;;10.70;99.90;;;;;;5112436;28;20851;-77
2023/01/14 15:06:47;;;;;;;11.00;10.40;;;10.80;99.90;;;;;;5112333;28;20479;-76
2023/01/14 15:09:18;;;;;;;9.63;9.03;;;10.90;99.90;;;;;;5112198;28;20441;-76
2023/01/14 15:11:48;;;;;;;10.50;10.00;;;11.00;99.90;;;;;;5111957;28;20473;-76
2023/01/14 15:14:25;;;;;;;10.23;9.73;;;11.10;99.90;;;;;;5111905;28;20453;-75
2023/01/14 15:16:53;;;;;;;10.00;9.60;;;11.30;99.90;;;;;;5111839;27;21032;-76
2023/01/14 15:19:20;;;;;;;9.60;9.20;;;11.40;99.90;;;;;;5112007;28;20795;-77
2023/01/14 15:21:48;;;;;;;9.67;9.37;;;11.50;99.90;;;;;;5111847;28;20441;-76
2023/01/14 15:24:17;;;;;;;9.47;9.07;;;11.60;99.80;;;;;;5111777;28;20854;-76
2023/01/14 15:26:47;;;;;;;10.57;10.17;;;11.70;99.70;;;;;;5112067;28;20444;-76
2023/01/14 15:29:17;;;;;;;9.90;9.60;;;11.80;99.10;;;;;;5111839;28;20928;-76
2023/01/14 15:31:44;;;;;;;10.57;10.07;;;11.80;98.60;;;;;;5111729;28;20445;-76
2023/01/14 15:34:22;;;;;;;9.67;9.37;;;11.80;98.60;;;;;;5106594;28;20468;-76
2023/01/14 15:36:59;;;;;;;9.33;8.93;;;11.80;98.30;;;;;;5100247;28;20850;-76
2023/01/14 15:39:27;;;;;;;9.67;9.27;;;11.80;98.30;;;;;;5090862;28;21014;-76
2023/01/14 15:41:57;;;;;;;8.80;8.50;;;11.80;98.40;;;;;;5091095;28;20454;-76
2023/01/14 15:44:27;;;;;;;11.50;10.80;;;11.80;99.00;;;;;;5091143;28;20507;-75
2023/01/14 15:46:54;;;;;;;10.10;9.70;;;11.60;99.00;;;;;;5091001;28;20885;-76
2023/01/14 15:49:22;;;;;;;12.17;11.77;;;11.60;99.30;;;;;;5090843;28;20455;-76
2023/01/14 15:51:50;;;;;;;18.40;17.70;;;11.50;99.70;;;;;;5093235;28;20469;-73
2023/01/14 15:54:30;;;;;;;18.23;17.63;;;11.20;99.90;;;;;;5099931;28;20457;-74
2023/01/14 15:57:13;;;;;;;16.23;15.70;;;10.90;99.90;;;;;;5101660;28;20438;-75
2023/01/14 15:59:40;;;;;;;13.53;13.07;;;10.70;99.90;;;;;;5101960;28;20450;-75
2023/01/14 16:02:23;;;;;;;9.73;9.33;;;10.60;99.90;;;;;;5094911;28;20485;-76
2023/01/14 16:04:50;;;;;;;8.77;8.47;;;10.60;99.90;;;;;;5092423;28;20536;-74
2023/01/14 16:07:20;;;;;;;9.77;9.47;;;10.80;99.90;;;;;;5091475;28;20443;-75
2023/01/14 16:09:47;;;;;;;9.57;9.23;;;11.00;99.90;;;;;;5091464;28;20442;-75
2023/01/14 16:12:16;;;;;;;8.80;8.47;;;11.20;99.90;;;;;;5090149;28;20489;-75
2023/01/14 16:14:45;;;;;;;9.97;9.57;;;11.30;99.90;;;;;;5090294;28;20461;-75
2023/01/14 16:17:13;;;;;;;9.60;9.30;;;11.30;99.90;;;;;;5090097;28;20483;-75
2023/01/14 16:19:40;;;;;;;9.47;9.10;;;11.40;99.90;;;;;;5089573;28;20533;-75
2023/01/14 16:22:07;;;;;;;9.00;8.70;;;11.30;99.90;;;;;;5090232;28;20457;-74
2023/01/14 16:24:34;;;;;;;9.37;8.97;;;11.30;99.90;;;;;;5090879;28;20805;-75
2023/01/14 16:27:02;;;;;;;9.70;9.10;;;11.30;99.90;;;;;;5091084;28;20930;-75
2023/01/14 16:29:30;;;;;;;10.83;10.43;;;11.20;99.90;;;;;;5090476;28;20453;-75
2023/01/14 16:31:57;;;;;;;9.37;8.93;;;11.20;99.90;;;;;;5090378;28;20462;-76
2023/01/14 16:34:24;;;;;;;9.60;9.30;;;11.20;99.90;;;;;;5090340;28;20454;-75
2023/01/14 16:36:51;;;;;;;9.93;9.50;;;11.20;99.90;;;;;;5090365;28;20449;-75
2023/01/14 16:39:18;;;;;;;9.57;9.27;;;11.10;99.90;;;;;;5090596;28;20914;-77
2023/01/14 16:41:46;;;;;;;10.10;9.70;;;11.00;99.90;;;;;;5090303;28;20937;-75
2023/01/14 16:44:14;;;;;;;10.40;10.00;;;11.00;99.90;;;;;;5090080;28;20489;-75
2023/01/14 16:46:42;;;;;;;10.13;9.60;;;11.00;99.90;;;;;;5090079;28;20480;-75
2023/01/14 16:49:08;;;;;;;8.60;8.30;;;10.90;99.90;;;;;;5090298;28;20793;-75
2023/01/14 16:51:37;;;;;;;9.47;9.17;;;10.90;99.90;;;;;;5090104;28;20450;-76
2023/01/14 16:54:04;;;;;;;9.63;9.33;;;10.90;99.90;;;;;;5090160;28;20454;-77
2023/01/14 16:56:31;;;;;;;8.93;8.53;;;10.90;99.90;;;;;;5089961;28;20486;-77
2023/01/14 16:58:58;;;;;;;8.60;8.30;;;10.90;99.90;;;;;;5089920;28;20454;-77
2023/01/14 17:01:26;;;;;;;8.40;8.10;;;10.90;99.90;;;;;;5089764;28;20462;-76
2023/01/14 17:03:55;;;;;;;8.90;8.50;;;10.80;99.90;;;;;;5089743;28;20446;-76
2023/01/14 17:06:22;;;;;;;9.40;9.00;;;10.80;99.90;;;;;;5089535;28;20474;-76
2023/01/14 17:08:48;;;;;;;9.97;9.30;;;10.80;99.90;;;;;;5090316;28;20450;-75
2023/01/14 17:14:08;;;;;;;10.47;10.07;;;10.80;99.90;;;;;;5089418;28;20513;-75
2023/01/14 17:16:35;;;;;;;11.03;10.53;;;10.80;99.90;;;;;;5089797;28;20871;-75
2023/01/14 17:19:05;;;;;;;10.73;10.33;;;10.90;99.90;;;;;;5089855;28;20457;-75
2023/01/14 17:21:32;;;;;;;10.70;10.30;;;10.90;99.90;;;;;;5089868;28;20472;-76
2023/01/14 17:24:00;;;;;;;10.70;10.30;;;10.90;99.90;;;;;;5089413;28;20439;-74
2023/01/14 17:26:26;;;;;;;10.30;9.90;;;10.90;99.90;;;;;;5089488;28;20549;-75
2023/01/14 17:28:53;;;;;;;9.93;9.53;;;10.90;99.90;;;;;;5089312;28;20557;-74
2023/01/14 17:31:20;;;;;;;10.07;9.67;;;10.90;99.90;;;;;;5089573;28;20450;-76
2023/01/14 17:33:47;;;;;;;9.83;9.43;;;10.90;99.90;;;;;;5089445;28;20584;-77
2023/01/14 17:36:16;;;;;;;10.23;9.83;;;10.90;99.90;;;;;;5089199;28;21010;-76
2023/01/14 17:38:43;;;;;;;10.50;10.03;;;11.00;99.90;;;;;;5089337;28;20826;-76
2023/01/14 17:43:53;;;;;;;11.13;10.53;;;10.90;99.90;;;;;;5088824;28;20422;-77
2023/01/14 17:46:20;;;;;;;9.97;9.47;;;10.90;99.90;;;;;;5089271;28;20454;-76
2023/01/14 17:48:46;;;;;;;9.90;9.60;;;10.90;99.90;;;;;;5089407;28;20441;-74
2023/01/14 17:51:15;;;;;;;10.60;10.10;;;11.00;99.90;;;;;;5088656;28;20728;-74
2023/01/14 17:53:41;;;;;;;10.97;10.40;;;11.00;99.90;;;;;;5088750;28;20489;-75
2023/01/14 17:56:08;;;;;;;11.27;10.77;;;11.00;99.90;;;;;;5089023;28;20960;-75
2023/01/14 17:58:36;;;;;;;10.40;9.90;;;11.00;99.90;;;;;;5089163;28;20465;-75
